Main page
METAR-TAF:

METAR-TAF

Airports :

Gibraltar, Gibraltar

Gibraltar International Airport

latitude: 36-09N, longitude: 005-21W, elevation: 5 m

Current weather observation

The report was made 43 minutes ago, at 19:50 UTC
Wind 17 kt from the West
Temperature 22°C
Humidity 65%
Pressure 1012 hPa
Visibility 10 km or more
Few clouds at a height of 2500 ft

METAR: LXGB 201950Z 26017KT 9999 FEW025 22/15 Q1012 NOSIG

Time: 22:33 (20:33 UTC)

Forecast

The report was made 4 hours and 0 minutes ago, at 16:33 UTC
Forecast valid from 20 at 18 UTC to 20 at 22 UTC
Wind 18 kt from the West
Visibility 10 km or more
Few clouds at a height of 3000 ft
Becoming
from 20 at 19 UTC to 20 at 22 UTC
Wind 8 kt from the West

TAF: LXGB 201633Z 2018/2022 26018KT 9999 FEW030 BECMG 2019/2022 27008KT

Weather observations and forecasts of more than 4000 airports (METAR and TAF reports).

The available stations are represented by yellow and red dots on the map.

Hover mouse over dot to see the name of the station.

Then click to see weather observations and forecasts.

To change the map : click on the green buttons with a black cross to zoom in, on the green button with a dash to zoom out, or on the green arrows for adjacent maps.


METAR-TAF: